sensor_id;sensor_type;location;lat;lon;timestamp;P1;durP1;ratioP1;P2;durP2;ratioP2
22673;SDS011;11504;43.334;21.918;2022-10-30T00:02:38;41.0;;;39.0;;
22673;SDS011;11504;43.334;21.918;2022-10-30T00:07:15;41.0;;;39.0;;
22673;SDS011;11504;43.334;21.918;2022-10-30T00:11:52;41.0;;;39.0;;
22673;SDS011;11504;43.334;21.918;2022-10-30T00:16:34;41.0;;;39.0;;
22673;SDS011;11504;43.334;21.918;2022-10-30T00:21:11;40.0;;;38.0;;
22673;SDS011;11504;43.334;21.918;2022-10-30T00:25:51;40.0;;;38.0;;
22673;SDS011;11504;43.334;21.918;2022-10-30T00:30:27;40.0;;;38.0;;
22673;SDS011;11504;43.334;21.918;2022-10-30T00:35:05;39.0;;;37.0;;
22673;SDS011;11504;43.334;21.918;2022-10-30T00:39:44;39.0;;;37.0;;
22673;SDS011;11504;43.334;21.918;2022-10-30T00:44:37;39.0;;;37.0;;
22673;SDS011;11504;43.334;21.918;2022-10-30T00:49:26;39.0;;;37.0;;
22673;SDS011;11504;43.334;21.918;2022-10-30T00:54:03;39.0;;;37.0;;
22673;SDS011;11504;43.334;21.918;2022-10-30T00:58:45;39.0;;;37.0;;
22673;SDS011;11504;43.334;21.918;2022-10-30T01:03:41;38.0;;;36.0;;
22673;SDS011;11504;43.334;21.918;2022-10-30T01:08:27;38.0;;;36.0;;
22673;SDS011;11504;43.334;21.918;2022-10-30T01:13:06;36.0;;;34.0;;
22673;SDS011;11504;43.334;21.918;2022-10-30T01:17:50;36.0;;;34.0;;
22673;SDS011;11504;43.334;21.918;2022-10-30T01:23:28;32.0;;;30.0;;
22673;SDS011;11504;43.334;21.918;2022-10-30T01:29:21;32.0;;;30.0;;
22673;SDS011;11504;43.334;21.918;2022-10-30T01:34:54;29.0;;;27.0;;
22673;SDS011;11504;43.334;21.918;2022-10-30T01:40:02;29.0;;;27.0;;
22673;SDS011;11504;43.334;21.918;2022-10-30T01:44:53;28.0;;;26.0;;
22673;SDS011;11504;43.334;21.918;2022-10-30T01:49:53;28.0;;;26.0;;
22673;SDS011;11504;43.334;21.918;2022-10-30T01:55:32;26.0;;;25.0;;
22673;SDS011;11504;43.334;21.918;2022-10-30T02:00:41;27.0;;;26.0;;
22673;SDS011;11504;43.334;21.918;2022-10-30T02:05:35;27.0;;;26.0;;
22673;SDS011;11504;43.334;21.918;2022-10-30T02:10:24;27.0;;;26.0;;
22673;SDS011;11504;43.334;21.918;2022-10-30T02:15:08;28.0;;;27.0;;
22673;SDS011;11504;43.334;21.918;2022-10-30T02:19:47;28.0;;;27.0;;
22673;SDS011;11504;43.334;21.918;2022-10-30T02:24:24;28.0;;;27.0;;
22673;SDS011;11504;43.334;21.918;2022-10-30T02:29:03;28.0;;;27.0;;
22673;SDS011;11504;43.334;21.918;2022-10-30T02:33:42;29.0;;;27.0;;
22673;SDS011;11504;43.334;21.918;2022-10-30T02:38:22;29.0;;;27.0;;
22673;SDS011;11504;43.334;21.918;2022-10-30T02:42:58;26.0;;;24.0;;
22673;SDS011;11504;43.334;21.918;2022-10-30T02:47:35;26.0;;;24.0;;
22673;SDS011;11504;43.334;21.918;2022-10-30T02:52:12;23.0;;;22.0;;
22673;SDS011;11504;43.334;21.918;2022-10-30T02:56:48;23.0;;;22.0;;
22673;SDS011;11504;43.334;21.918;2022-10-30T03:01:25;24.0;;;22.0;;
22673;SDS011;11504;43.334;21.918;2022-10-30T03:06:03;24.0;;;22.0;;
22673;SDS011;11504;43.334;21.918;2022-10-30T03:10:51;24.0;;;23.0;;
22673;SDS011;11504;43.334;21.918;2022-10-30T03:15:41;24.0;;;23.0;;
22673;SDS011;11504;43.334;21.918;2022-10-30T03:20:18;24.0;;;23.0;;
22673;SDS011;11504;43.334;21.918;2022-10-30T03:24:55;26.0;;;24.0;;
22673;SDS011;11504;43.334;21.918;2022-10-30T03:29:31;26.0;;;24.0;;
22673;SDS011;11504;43.334;21.918;2022-10-30T03:34:08;27.0;;;25.0;;
22673;SDS011;11504;43.334;21.918;2022-10-30T03:38:45;27.0;;;25.0;;
22673;SDS011;11504;43.334;21.918;2022-10-30T03:43:22;26.0;;;24.0;;
22673;SDS011;11504;43.334;21.918;2022-10-30T03:47:59;26.0;;;24.0;;
22673;SDS011;11504;43.334;21.918;2022-10-30T03:52:40;26.0;;;24.0;;
22673;SDS011;11504;43.334;21.918;2022-10-30T03:57:17;26.0;;;24.0;;
22673;SDS011;11504;43.334;21.918;2022-10-30T04:01:54;26.0;;;24.0;;
22673;SDS011;11504;43.334;21.918;2022-10-30T04:06:31;26.0;;;24.0;;
22673;SDS011;11504;43.334;21.918;2022-10-30T04:11:08;25.0;;;24.0;;
22673;SDS011;11504;43.334;21.918;2022-10-30T04:15:46;25.0;;;24.0;;
22673;SDS011;11504;43.334;21.918;2022-10-30T04:20:26;25.0;;;24.0;;
22673;SDS011;11504;43.334;21.918;2022-10-30T04:25:06;26.0;;;26.0;;
22673;SDS011;11504;43.334;21.918;2022-10-30T04:29:45;26.0;;;26.0;;
22673;SDS011;11504;43.334;21.918;2022-10-30T04:34:22;28.0;;;27.0;;
22673;SDS011;11504;43.334;21.918;2022-10-30T04:38:59;28.0;;;27.0;;
22673;SDS011;11504;43.334;21.918;2022-10-30T04:43:36;26.0;;;24.0;;
22673;SDS011;11504;43.334;21.918;2022-10-30T04:48:13;26.0;;;24.0;;
22673;SDS011;11504;43.334;21.918;2022-10-30T04:52:58;23.0;;;21.0;;
22673;SDS011;11504;43.334;21.918;2022-10-30T04:57:42;23.0;;;21.0;;
22673;SDS011;11504;43.334;21.918;2022-10-30T05:02:18;28.0;;;26.0;;
22673;SDS011;11504;43.334;21.918;2022-10-30T05:06:55;28.0;;;26.0;;
22673;SDS011;11504;43.334;21.918;2022-10-30T05:11:31;32.0;;;30.0;;
22673;SDS011;11504;43.334;21.918;2022-10-30T05:16:08;32.0;;;30.0;;
22673;SDS011;11504;43.334;21.918;2022-10-30T05:20:45;32.0;;;30.0;;
22673;SDS011;11504;43.334;21.918;2022-10-30T05:25:22;28.0;;;27.0;;
22673;SDS011;11504;43.334;21.918;2022-10-30T05:30:02;28.0;;;27.0;;
22673;SDS011;11504;43.334;21.918;2022-10-30T05:34:43;25.0;;;24.0;;
22673;SDS011;11504;43.334;21.918;2022-10-30T05:39:21;25.0;;;24.0;;
22673;SDS011;11504;43.334;21.918;2022-10-30T05:43:58;26.0;;;26.0;;
22673;SDS011;11504;43.334;21.918;2022-10-30T05:48:35;26.0;;;26.0;;
22673;SDS011;11504;43.334;21.918;2022-10-30T05:53:12;28.0;;;27.0;;
22673;SDS011;11504;43.334;21.918;2022-10-30T05:57:53;28.0;;;27.0;;
22673;SDS011;11504;43.334;21.918;2022-10-30T06:02:33;28.0;;;26.0;;
22673;SDS011;11504;43.334;21.918;2022-10-30T06:07:10;28.0;;;26.0;;
22673;SDS011;11504;43.334;21.918;2022-10-30T06:11:47;28.0;;;26.0;;
22673;SDS011;11504;43.334;21.918;2022-10-30T06:16:24;28.0;;;26.0;;
22673;SDS011;11504;43.334;21.918;2022-10-30T06:21:02;27.0;;;26.0;;
22673;SDS011;11504;43.334;21.918;2022-10-30T06:25:45;27.0;;;26.0;;
22673;SDS011;11504;43.334;21.918;2022-10-30T06:30:23;27.0;;;26.0;;
22673;SDS011;11504;43.334;21.918;2022-10-30T06:35:03;26.0;;;25.0;;
22673;SDS011;11504;43.334;21.918;2022-10-30T06:39:43;26.0;;;25.0;;
22673;SDS011;11504;43.334;21.918;2022-10-30T06:44:20;26.0;;;24.0;;
22673;SDS011;11504;43.334;21.918;2022-10-30T06:48:58;26.0;;;24.0;;
22673;SDS011;11504;43.334;21.918;2022-10-30T06:53:35;25.0;;;24.0;;
22673;SDS011;11504;43.334;21.918;2022-10-30T06:58:12;25.0;;;24.0;;
22673;SDS011;11504;43.334;21.918;2022-10-30T07:02:57;31.0;;;30.0;;
22673;SDS011;11504;43.334;21.918;2022-10-30T07:07:37;31.0;;;30.0;;
22673;SDS011;11504;43.334;21.918;2022-10-30T07:12:13;37.0;;;35.0;;
22673;SDS011;11504;43.334;21.918;2022-10-30T07:16:52;37.0;;;35.0;;
22673;SDS011;11504;43.334;21.918;2022-10-30T07:21:30;39.0;;;37.0;;
22673;SDS011;11504;43.334;21.918;2022-10-30T07:26:06;39.0;;;37.0;;
22673;SDS011;11504;43.334;21.918;2022-10-30T07:30:43;39.0;;;37.0;;
22673;SDS011;11504;43.334;21.918;2022-10-30T07:35:20;41.0;;;39.0;;
22673;SDS011;11504;43.334;21.918;2022-10-30T07:39:56;41.0;;;39.0;;
22673;SDS011;11504;43.334;21.918;2022-10-30T07:44:33;40.0;;;38.0;;
22673;SDS011;11504;43.334;21.918;2022-10-30T07:49:09;40.0;;;38.0;;
22673;SDS011;11504;43.334;21.918;2022-10-30T07:53:46;38.0;;;36.0;;
22673;SDS011;11504;43.334;21.918;2022-10-30T07:58:23;38.0;;;36.0;;
22673;SDS011;11504;43.334;21.918;2022-10-30T08:03:00;39.0;;;37.0;;
22673;SDS011;11504;43.334;21.918;2022-10-30T08:07:37;39.0;;;37.0;;
22673;SDS011;11504;43.334;21.918;2022-10-30T08:12:13;40.0;;;38.0;;
22673;SDS011;11504;43.334;21.918;2022-10-30T08:16:50;40.0;;;38.0;;
22673;SDS011;11504;43.334;21.918;2022-10-30T08:21:27;36.0;;;34.0;;
22673;SDS011;11504;43.334;21.918;2022-10-30T08:30:51;36.0;;;34.0;;
22673;SDS011;11504;43.334;21.918;2022-10-30T08:35:28;32.0;;;30.0;;
22673;SDS011;11504;43.334;21.918;2022-10-30T08:40:06;32.0;;;30.0;;
22673;SDS011;11504;43.334;21.918;2022-10-30T08:44:46;31.0;;;29.0;;
22673;SDS011;11504;43.334;21.918;2022-10-30T08:49:23;31.0;;;29.0;;
22673;SDS011;11504;43.334;21.918;2022-10-30T08:53:59;30.0;;;28.0;;
22673;SDS011;11504;43.334;21.918;2022-10-30T08:58:36;30.0;;;28.0;;
22673;SDS011;11504;43.334;21.918;2022-10-30T09:03:13;28.0;;;27.0;;
22673;SDS011;11504;43.334;21.918;2022-10-30T09:07:54;28.0;;;27.0;;
22673;SDS011;11504;43.334;21.918;2022-10-30T09:12:34;27.0;;;26.0;;
22673;SDS011;11504;43.334;21.918;2022-10-30T09:17:11;27.0;;;26.0;;
22673;SDS011;11504;43.334;21.918;2022-10-30T09:21:48;26.0;;;24.0;;
22673;SDS011;11504;43.334;21.918;2022-10-30T09:26:25;26.0;;;24.0;;
22673;SDS011;11504;43.334;21.918;2022-10-30T09:31:04;24.0;;;23.0;;
22673;SDS011;11504;43.334;21.918;2022-10-30T09:35:41;24.0;;;23.0;;
22673;SDS011;11504;43.334;21.918;2022-10-30T09:40:20;24.0;;;23.0;;
22673;SDS011;11504;43.334;21.918;2022-10-30T09:46:03;26.0;;;24.0;;
22673;SDS011;11504;43.334;21.918;2022-10-30T09:51:51;27.0;;;25.0;;
22673;SDS011;11504;43.334;21.918;2022-10-30T09:57:15;27.0;;;25.0;;
22673;SDS011;11504;43.334;21.918;2022-10-30T10:02:26;26.0;;;24.0;;
22673;SDS011;11504;43.334;21.918;2022-10-30T10:07:40;26.0;;;24.0;;
22673;SDS011;11504;43.334;21.918;2022-10-30T10:12:36;24.0;;;23.0;;
22673;SDS011;11504;43.334;21.918;2022-10-30T10:17:27;24.0;;;23.0;;
22673;SDS011;11504;43.334;21.918;2022-10-30T10:22:20;32.0;;;28.0;;
22673;SDS011;11504;43.334;21.918;2022-10-30T10:27:31;32.0;;;28.0;;
22673;SDS011;11504;43.334;21.918;2022-10-30T10:33:36;39.0;;;33.0;;
22673;SDS011;11504;43.334;21.918;2022-10-30T10:39:21;39.0;;;33.0;;
22673;SDS011;11504;43.334;21.918;2022-10-30T10:45:01;32.0;;;28.0;;
22673;SDS011;11504;43.334;21.918;2022-10-30T10:50:23;32.0;;;28.0;;
22673;SDS011;11504;43.334;21.918;2022-10-30T10:55:16;25.0;;;23.0;;
22673;SDS011;11504;43.334;21.918;2022-10-30T11:00:13;25.0;;;23.0;;
22673;SDS011;11504;43.334;21.918;2022-10-30T11:04:59;23.0;;;22.0;;
22673;SDS011;11504;43.334;21.918;2022-10-30T11:10:10;23.0;;;22.0;;
22673;SDS011;11504;43.334;21.918;2022-10-30T11:14:55;21.0;;;20.0;;
22673;SDS011;11504;43.334;21.918;2022-10-30T11:20:11;21.0;;;20.0;;
22673;SDS011;11504;43.334;21.918;2022-10-30T11:25:17;20.0;;;20.0;;
22673;SDS011;11504;43.334;21.918;2022-10-30T11:30:15;20.0;;;20.0;;
22673;SDS011;11504;43.334;21.918;2022-10-30T11:35:07;20.0;;;19.0;;
22673;SDS011;11504;43.334;21.918;2022-10-30T11:40:00;20.0;;;19.0;;
22673;SDS011;11504;43.334;21.918;2022-10-30T11:44:57;18.0;;;17.0;;
22673;SDS011;11504;43.334;21.918;2022-10-30T11:49:36;18.0;;;17.0;;
22673;SDS011;11504;43.334;21.918;2022-10-30T11:54:34;16.0;;;15.0;;
22673;SDS011;11504;43.334;21.918;2022-10-30T11:59:31;16.0;;;15.0;;
22673;SDS011;11504;43.334;21.918;2022-10-30T12:04:12;18.0;;;16.0;;
22673;SDS011;11504;43.334;21.918;2022-10-30T12:09:09;18.0;;;16.0;;
22673;SDS011;11504;43.334;21.918;2022-10-30T12:13:58;19.0;;;18.0;;
22673;SDS011;11504;43.334;21.918;2022-10-30T12:18:39;19.0;;;18.0;;
22673;SDS011;11504;43.334;21.918;2022-10-30T12:23:40;19.0;;;18.0;;
22673;SDS011;11504;43.334;21.918;2022-10-30T12:28:35;19.0;;;18.0;;
22673;SDS011;11504;43.334;21.918;2022-10-30T12:33:31;19.0;;;18.0;;
22673;SDS011;11504;43.334;21.918;2022-10-30T12:38:46;19.0;;;18.0;;
22673;SDS011;11504;43.334;21.918;2022-10-30T12:43:45;18.0;;;18.0;;
22673;SDS011;11504;43.334;21.918;2022-10-30T12:48:51;18.0;;;18.0;;
22673;SDS011;11504;43.334;21.918;2022-10-30T12:54:01;18.0;;;17.0;;
22673;SDS011;11504;43.334;21.918;2022-10-30T12:59:16;18.0;;;17.0;;
22673;SDS011;11504;43.334;21.918;2022-10-30T13:04:35;19.0;;;18.0;;
22673;SDS011;11504;43.334;21.918;2022-10-30T13:09:34;19.0;;;18.0;;
22673;SDS011;11504;43.334;21.918;2022-10-30T13:14:57;20.0;;;19.0;;
22673;SDS011;11504;43.334;21.918;2022-10-30T13:20:04;20.0;;;19.0;;
22673;SDS011;11504;43.334;21.918;2022-10-30T13:24:54;22.0;;;20.0;;
22673;SDS011;11504;43.334;21.918;2022-10-30T13:30:03;22.0;;;20.0;;
22673;SDS011;11504;43.334;21.918;2022-10-30T13:34:58;23.0;;;22.0;;
22673;SDS011;11504;43.334;21.918;2022-10-30T13:40:17;23.0;;;22.0;;
22673;SDS011;11504;43.334;21.918;2022-10-30T13:45:38;24.0;;;22.0;;
22673;SDS011;11504;43.334;21.918;2022-10-30T13:51:33;24.0;;;22.0;;
22673;SDS011;11504;43.334;21.918;2022-10-30T13:56:41;24.0;;;22.0;;
22673;SDS011;11504;43.334;21.918;2022-10-30T14:01:28;22.0;;;21.0;;
22673;SDS011;11504;43.334;21.918;2022-10-30T14:06:35;22.0;;;21.0;;
22673;SDS011;11504;43.334;21.918;2022-10-30T14:11:59;21.0;;;20.0;;
22673;SDS011;11504;43.334;21.918;2022-10-30T14:18:58;21.0;;;20.0;;
22673;SDS011;11504;43.334;21.918;2022-10-30T14:23:41;22.0;;;21.0;;
22673;SDS011;11504;43.334;21.918;2022-10-30T14:28:18;22.0;;;21.0;;
22673;SDS011;11504;43.334;21.918;2022-10-30T14:32:57;23.0;;;22.0;;
22673;SDS011;11504;43.334;21.918;2022-10-30T14:37:55;23.0;;;22.0;;
22673;SDS011;11504;43.334;21.918;2022-10-30T14:42:58;25.0;;;24.0;;
22673;SDS011;11504;43.334;21.918;2022-10-30T14:48:23;25.0;;;24.0;;
22673;SDS011;11504;43.334;21.918;2022-10-30T14:53:53;27.0;;;26.0;;
22673;SDS011;11504;43.334;21.918;2022-10-30T14:59:21;27.0;;;26.0;;
22673;SDS011;11504;43.334;21.918;2022-10-30T15:04:13;26.0;;;26.0;;
22673;SDS011;11504;43.334;21.918;2022-10-30T15:10:00;26.0;;;26.0;;
22673;SDS011;11504;43.334;21.918;2022-10-30T15:15:10;26.0;;;25.0;;
22673;SDS011;11504;43.334;21.918;2022-10-30T15:19:53;26.0;;;25.0;;
22673;SDS011;11504;43.334;21.918;2022-10-30T15:24:42;24.0;;;24.0;;
22673;SDS011;11504;43.334;21.918;2022-10-30T15:29:22;24.0;;;24.0;;
22673;SDS011;11504;43.334;21.918;2022-10-30T15:34:18;23.0;;;22.0;;
22673;SDS011;11504;43.334;21.918;2022-10-30T15:39:05;23.0;;;22.0;;
22673;SDS011;11504;43.334;21.918;2022-10-30T15:43:51;24.0;;;24.0;;
22673;SDS011;11504;43.334;21.918;2022-10-30T15:48:28;24.0;;;24.0;;
22673;SDS011;11504;43.334;21.918;2022-10-30T15:53:22;26.0;;;25.0;;
22673;SDS011;11504;43.334;21.918;2022-10-30T15:58:22;26.0;;;25.0;;
22673;SDS011;11504;43.334;21.918;2022-10-30T16:03:01;29.0;;;28.0;;
22673;SDS011;11504;43.334;21.918;2022-10-30T16:07:53;29.0;;;28.0;;
22673;SDS011;11504;43.334;21.918;2022-10-30T16:12:37;32.0;;;30.0;;
22673;SDS011;11504;43.334;21.918;2022-10-30T16:17:13;32.0;;;30.0;;
22673;SDS011;11504;43.334;21.918;2022-10-30T16:21:51;32.0;;;30.0;;
22673;SDS011;11504;43.334;21.918;2022-10-30T16:26:34;32.0;;;30.0;;
22673;SDS011;11504;43.334;21.918;2022-10-30T16:31:13;32.0;;;30.0;;
22673;SDS011;11504;43.334;21.918;2022-10-30T16:35:52;33.0;;;31.0;;
22673;SDS011;11504;43.334;21.918;2022-10-30T16:40:34;33.0;;;31.0;;
22673;SDS011;11504;43.334;21.918;2022-10-30T16:47:23;30.0;;;28.0;;
22673;SDS011;11504;43.334;21.918;2022-10-30T16:52:03;27.0;;;26.0;;
22673;SDS011;11504;43.334;21.918;2022-10-30T16:56:52;27.0;;;26.0;;
22673;SDS011;11504;43.334;21.918;2022-10-30T17:01:43;29.0;;;28.0;;
22673;SDS011;11504;43.334;21.918;2022-10-30T17:06:33;29.0;;;28.0;;
22673;SDS011;11504;43.334;21.918;2022-10-30T17:11:32;29.0;;;28.0;;
22673;SDS011;11504;43.334;21.918;2022-10-30T17:16:22;31.0;;;29.0;;
22673;SDS011;11504;43.334;21.918;2022-10-30T17:21:07;31.0;;;29.0;;
22673;SDS011;11504;43.334;21.918;2022-10-30T17:25:57;38.0;;;36.0;;
22673;SDS011;11504;43.334;21.918;2022-10-30T17:30:47;38.0;;;36.0;;
22673;SDS011;11504;43.334;21.918;2022-10-30T17:35:25;44.0;;;42.0;;
22673;SDS011;11504;43.334;21.918;2022-10-30T17:40:03;44.0;;;42.0;;
22673;SDS011;11504;43.334;21.918;2022-10-30T17:44:45;48.0;;;46.0;;
22673;SDS011;11504;43.334;21.918;2022-10-30T17:49:24;48.0;;;46.0;;
22673;SDS011;11504;43.334;21.918;2022-10-30T17:54:07;52.0;;;49.0;;
22673;SDS011;11504;43.334;21.918;2022-10-30T17:58:48;52.0;;;49.0;;
22673;SDS011;11504;43.334;21.918;2022-10-30T18:03:24;49.0;;;46.0;;
22673;SDS011;11504;43.334;21.918;2022-10-30T18:08:01;49.0;;;46.0;;
22673;SDS011;11504;43.334;21.918;2022-10-30T18:12:39;46.0;;;43.0;;
22673;SDS011;11504;43.334;21.918;2022-10-30T18:17:16;46.0;;;43.0;;
22673;SDS011;11504;43.334;21.918;2022-10-30T18:21:53;42.0;;;40.0;;
22673;SDS011;11504;43.334;21.918;2022-10-30T18:26:29;42.0;;;40.0;;
22673;SDS011;11504;43.334;21.918;2022-10-30T18:31:07;42.0;;;40.0;;
22673;SDS011;11504;43.334;21.918;2022-10-30T18:35:54;39.0;;;37.0;;
22673;SDS011;11504;43.334;21.918;2022-10-30T18:40:34;39.0;;;37.0;;
22673;SDS011;11504;43.334;21.918;2022-10-30T18:45:14;57.0;;;54.0;;
22673;SDS011;11504;43.334;21.918;2022-10-30T18:50:02;57.0;;;54.0;;
22673;SDS011;11504;43.334;21.918;2022-10-30T18:54:41;75.0;;;71.0;;
22673;SDS011;11504;43.334;21.918;2022-10-30T18:59:17;75.0;;;71.0;;
22673;SDS011;11504;43.334;21.918;2022-10-30T19:03:54;79.0;;;75.0;;
22673;SDS011;11504;43.334;21.918;2022-10-30T19:08:31;79.0;;;75.0;;
22673;SDS011;11504;43.334;21.918;2022-10-30T19:13:10;83.0;;;79.0;;
22673;SDS011;11504;43.334;21.918;2022-10-30T19:17:56;83.0;;;79.0;;
22673;SDS011;11504;43.334;21.918;2022-10-30T19:22:36;70.0;;;67.0;;
22673;SDS011;11504;43.334;21.918;2022-10-30T19:27:14;70.0;;;67.0;;
22673;SDS011;11504;43.334;21.918;2022-10-30T19:31:51;58.0;;;55.0;;
22673;SDS011;11504;43.334;21.918;2022-10-30T19:36:28;58.0;;;55.0;;
22673;SDS011;11504;43.334;21.918;2022-10-30T19:41:11;58.0;;;55.0;;
22673;SDS011;11504;43.334;21.918;2022-10-30T19:45:48;57.0;;;54.0;;
22673;SDS011;11504;43.334;21.918;2022-10-30T19:50:32;57.0;;;54.0;;
22673;SDS011;11504;43.334;21.918;2022-10-30T19:55:18;56.0;;;53.0;;
22673;SDS011;11504;43.334;21.918;2022-10-30T20:00:00;56.0;;;53.0;;
22673;SDS011;11504;43.334;21.918;2022-10-30T20:04:51;55.0;;;52.0;;
22673;SDS011;11504;43.334;21.918;2022-10-30T20:09:28;55.0;;;52.0;;
22673;SDS011;11504;43.334;21.918;2022-10-30T20:14:05;54.0;;;52.0;;
22673;SDS011;11504;43.334;21.918;2022-10-30T20:18:41;54.0;;;52.0;;
22673;SDS011;11504;43.334;21.918;2022-10-30T20:23:19;46.0;;;44.0;;
22673;SDS011;11504;43.334;21.918;2022-10-30T20:28:02;46.0;;;44.0;;
22673;SDS011;11504;43.334;21.918;2022-10-30T20:33:08;37.0;;;35.0;;
22673;SDS011;11504;43.334;21.918;2022-10-30T20:37:58;37.0;;;35.0;;
22673;SDS011;11504;43.334;21.918;2022-10-30T20:42:38;44.0;;;42.0;;
22673;SDS011;11504;43.334;21.918;2022-10-30T20:47:18;44.0;;;42.0;;
22673;SDS011;11504;43.334;21.918;2022-10-30T20:51:55;52.0;;;50.0;;
22673;SDS011;11504;43.334;21.918;2022-10-30T20:56:31;52.0;;;50.0;;
22673;SDS011;11504;43.334;21.918;2022-10-30T21:01:08;52.0;;;50.0;;
22673;SDS011;11504;43.334;21.918;2022-10-30T21:05:45;56.0;;;53.0;;
22673;SDS011;11504;43.334;21.918;2022-10-30T21:10:35;56.0;;;53.0;;
22673;SDS011;11504;43.334;21.918;2022-10-30T21:15:15;59.0;;;56.0;;
22673;SDS011;11504;43.334;21.918;2022-10-30T21:19:53;59.0;;;56.0;;
22673;SDS011;11504;43.334;21.918;2022-10-30T21:24:30;50.0;;;48.0;;
22673;SDS011;11504;43.334;21.918;2022-10-30T21:29:06;50.0;;;48.0;;
22673;SDS011;11504;43.334;21.918;2022-10-30T21:33:43;42.0;;;40.0;;
22673;SDS011;11504;43.334;21.918;2022-10-30T21:38:20;42.0;;;40.0;;
22673;SDS011;11504;43.334;21.918;2022-10-30T21:42:57;42.0;;;40.0;;
22673;SDS011;11504;43.334;21.918;2022-10-30T21:47:34;42.0;;;40.0;;
22673;SDS011;11504;43.334;21.918;2022-10-30T21:52:10;43.0;;;41.0;;
22673;SDS011;11504;43.334;21.918;2022-10-30T21:56:47;43.0;;;41.0;;
22673;SDS011;11504;43.334;21.918;2022-10-30T22:01:26;43.0;;;41.0;;
22673;SDS011;11504;43.334;21.918;2022-10-30T22:06:11;40.0;;;38.0;;
22673;SDS011;11504;43.334;21.918;2022-10-30T22:11:00;40.0;;;38.0;;
22673;SDS011;11504;43.334;21.918;2022-10-30T22:15:43;37.0;;;35.0;;
22673;SDS011;11504;43.334;21.918;2022-10-30T22:20:27;37.0;;;35.0;;
22673;SDS011;11504;43.334;21.918;2022-10-30T22:25:04;35.0;;;33.0;;
22673;SDS011;11504;43.334;21.918;2022-10-30T22:29:42;35.0;;;33.0;;
22673;SDS011;11504;43.334;21.918;2022-10-30T22:34:19;33.0;;;31.0;;
22673;SDS011;11504;43.334;21.918;2022-10-30T22:38:57;33.0;;;31.0;;
22673;SDS011;11504;43.334;21.918;2022-10-30T22:43:46;35.0;;;33.0;;
22673;SDS011;11504;43.334;21.918;2022-10-30T22:48:35;35.0;;;33.0;;
22673;SDS011;11504;43.334;21.918;2022-10-30T22:53:14;37.0;;;35.0;;
22673;SDS011;11504;43.334;21.918;2022-10-30T22:57:51;37.0;;;35.0;;
22673;SDS011;11504;43.334;21.918;2022-10-30T23:02:29;38.0;;;36.0;;
22673;SDS011;11504;43.334;21.918;2022-10-30T23:07:08;38.0;;;36.0;;
22673;SDS011;11504;43.334;21.918;2022-10-30T23:11:45;38.0;;;36.0;;
22673;SDS011;11504;43.334;21.918;2022-10-30T23:16:22;39.0;;;37.0;;
22673;SDS011;11504;43.334;21.918;2022-10-30T23:21:04;39.0;;;37.0;;
22673;SDS011;11504;43.334;21.918;2022-10-30T23:25:52;39.0;;;37.0;;
22673;SDS011;11504;43.334;21.918;2022-10-30T23:30:29;39.0;;;37.0;;
22673;SDS011;11504;43.334;21.918;2022-10-30T23:35:06;39.0;;;37.0;;
22673;SDS011;11504;43.334;21.918;2022-10-30T23:39:44;39.0;;;37.0;;
22673;SDS011;11504;43.334;21.918;2022-10-30T23:44:20;38.0;;;36.0;;
22673;SDS011;11504;43.334;21.918;2022-10-30T23:48:57;38.0;;;36.0;;
22673;SDS011;11504;43.334;21.918;2022-10-30T23:53:36;37.0;;;35.0;;
22673;SDS011;11504;43.334;21.918;2022-10-30T23:58:12;37.0;;;35.0;;
